createdAt,value
2018-09-20T00:04:35.840Z,17.60
2018-09-20T00:10:39.285Z,17.60
2018-09-20T00:16:42.742Z,17.50
2018-09-20T00:22:46.720Z,17.50
2018-09-20T00:28:50.971Z,17.40
2018-09-20T00:34:55.176Z,17.30
2018-09-20T00:40:58.752Z,17.00
2018-09-20T00:47:02.957Z,17.10
2018-09-20T00:53:07.205Z,17.10
2018-09-20T00:59:10.579Z,17.10
2018-09-20T01:05:14.053Z,17.00
2018-09-20T01:11:17.496Z,17.00
2018-09-20T01:17:20.943Z,17.00
2018-09-20T01:23:24.393Z,16.90
2018-09-20T01:29:27.821Z,16.90
2018-09-20T01:35:31.408Z,16.80
2018-09-20T01:41:35.365Z,16.80
2018-09-20T01:47:40.185Z,16.80
2018-09-20T01:53:43.784Z,16.70
2018-09-20T01:59:47.817Z,16.60
2018-09-20T02:05:51.185Z,16.50
2018-09-20T02:11:54.736Z,16.40
2018-09-20T02:17:58.177Z,16.30
2018-09-20T02:24:01.777Z,16.30
2018-09-20T02:30:05.508Z,16.20
2018-09-20T02:36:09.119Z,16.20
2018-09-20T02:42:12.741Z,16.30
2018-09-20T02:48:16.077Z,16.20
2018-09-20T02:54:25.759Z,16.20
2018-09-20T03:00:29.177Z,16.20
2018-09-20T03:06:32.662Z,16.00
2018-09-20T03:12:36.833Z,15.90
2018-09-20T03:18:40.247Z,15.80
2018-09-20T03:24:44.387Z,15.80
2018-09-20T03:30:48.476Z,15.80
2018-09-20T03:36:52.007Z,15.80
2018-09-20T03:42:55.375Z,15.90
2018-09-20T03:48:58.780Z,16.00
2018-09-20T03:55:02.292Z,16.00
2018-09-20T04:01:05.706Z,16.10
2018-09-20T04:07:09.252Z,16.10
2018-09-20T04:13:13.976Z,16.10
2018-09-20T04:19:17.558Z,16.00
2018-09-20T04:25:20.994Z,15.90
2018-09-20T04:31:24.873Z,15.80
2018-09-20T04:37:28.421Z,15.90
2018-09-20T04:43:32.348Z,15.80
2018-09-20T04:49:35.772Z,15.70
2018-09-20T04:55:39.860Z,15.70
2018-09-20T05:01:43.388Z,15.70
2018-09-20T05:07:46.803Z,15.60
2018-09-20T05:13:50.317Z,15.60
2018-09-20T05:19:54.597Z,15.70
2018-09-20T05:25:58.333Z,15.70
2018-09-20T05:32:01.922Z,15.80
2018-09-20T05:38:05.874Z,15.90
2018-09-20T05:44:10.732Z,16.00
2018-09-20T05:50:14.259Z,16.10
2018-09-20T05:56:18.485Z,16.20
2018-09-20T06:02:22.028Z,16.20
2018-09-20T06:08:25.745Z,16.30
2018-09-20T06:14:29.154Z,16.50
2018-09-20T06:20:32.624Z,16.70
2018-09-20T06:26:36.178Z,17.10
2018-09-20T06:32:39.911Z,17.50
2018-09-20T06:38:43.644Z,17.90
2018-09-20T06:44:47.197Z,18.20
2018-09-20T06:50:50.897Z,18.40
2018-09-20T06:56:54.287Z,18.60
2018-09-20T07:02:57.902Z,18.70
2018-09-20T07:09:01.512Z,18.80
2018-09-20T07:15:07.307Z,19.00
2018-09-20T07:21:10.842Z,19.20
2018-09-20T07:27:15.015Z,19.30
2018-09-20T07:33:18.451Z,19.30
2018-09-20T07:39:22.295Z,19.40
2018-09-20T07:45:26.361Z,19.60
2018-09-20T07:51:30.109Z,19.80
2018-09-20T07:57:34.422Z,19.90
2018-09-20T08:03:39.838Z,20.00
2018-09-20T08:09:43.266Z,20.10
2018-09-20T08:15:46.833Z,20.20
2018-09-20T08:21:50.604Z,20.30
2018-09-20T08:27:54.103Z,20.60
2018-09-20T08:33:57.644Z,21.00
2018-09-20T08:40:01.069Z,21.10
2018-09-20T08:46:04.571Z,21.20
2018-09-20T08:52:07.997Z,21.30
2018-09-20T08:58:11.357Z,21.50
2018-09-20T09:04:14.929Z,21.70
2018-09-20T09:10:18.428Z,21.90
2018-09-20T09:16:28.581Z,22.00
2018-09-20T09:22:32.014Z,22.20
2018-09-20T09:28:35.579Z,22.40
2018-09-20T09:34:39.024Z,22.60
2018-09-20T09:40:42.482Z,22.90
2018-09-20T09:46:46.050Z,23.10
2018-09-20T09:52:49.745Z,23.30
2018-09-20T09:58:53.187Z,23.40
2018-09-20T10:04:57.245Z,23.70
2018-09-20T10:11:00.791Z,23.80
2018-09-20T10:17:04.897Z,23.80
2018-09-20T10:23:08.318Z,23.80
2018-09-20T10:29:13.335Z,24.00
2018-09-20T10:35:16.830Z,24.30
2018-09-20T10:41:20.491Z,24.80
2018-09-20T10:47:24.452Z,24.80
2018-09-20T10:53:27.954Z,24.60
2018-09-20T10:59:31.305Z,24.60
2018-09-20T11:05:34.842Z,24.80
2018-09-20T11:11:38.272Z,24.80
2018-09-20T11:17:41.828Z,24.80
2018-09-20T11:23:45.767Z,24.70
2018-09-20T11:29:49.143Z,24.80
2018-09-20T11:35:52.566Z,24.80
2018-09-20T11:41:56.068Z,25.00
2018-09-20T11:47:59.769Z,25.10
2018-09-20T11:54:03.512Z,25.10
2018-09-20T12:00:07.242Z,25.20
2018-09-20T12:06:11.114Z,25.10
2018-09-20T12:12:16.129Z,25.20
2018-09-20T12:18:22.097Z,25.20
2018-09-20T12:24:25.559Z,25.40
2018-09-20T12:30:28.976Z,25.60
2018-09-20T12:36:32.643Z,25.70
2018-09-20T12:42:36.110Z,25.60
2018-09-20T12:48:40.354Z,25.60
2018-09-20T12:54:44.513Z,25.70
2018-09-20T13:00:48.267Z,25.90
2018-09-20T13:06:51.980Z,26.00
2018-09-20T13:12:55.667Z,25.90
2018-09-20T13:18:59.098Z,26.00
2018-09-20T13:25:02.583Z,26.00
2018-09-20T13:31:06.110Z,26.00
2018-09-20T13:37:10.283Z,26.00
2018-09-20T13:43:13.830Z,26.00
2018-09-20T13:49:17.317Z,26.10
2018-09-20T13:55:20.875Z,26.10
2018-09-20T14:01:24.642Z,26.20
2018-09-20T14:07:28.101Z,26.20
2018-09-20T14:13:31.622Z,26.30
2018-09-20T14:19:35.685Z,26.20
2018-09-20T14:25:50.238Z,26.20
2018-09-20T14:38:29.777Z,26.50
2018-09-20T14:44:33.376Z,26.60
2018-09-20T14:50:36.872Z,26.80
2018-09-20T14:56:41.325Z,27.10
2018-09-20T15:02:44.952Z,27.30
2018-09-20T15:08:48.698Z,27.60
2018-09-20T15:14:52.434Z,27.70
2018-09-20T15:20:57.246Z,28.00
2018-09-20T15:27:02.441Z,28.10
2018-09-20T15:33:06.747Z,28.10
2018-09-20T15:39:11.469Z,28.20
2018-09-20T15:45:16.229Z,28.10
2018-09-20T15:51:19.706Z,28.20
2018-09-20T15:57:23.250Z,27.60
2018-09-20T16:03:26.854Z,27.10
2018-09-20T16:09:30.452Z,26.90
2018-09-20T16:15:34.209Z,26.60
2018-09-20T16:21:38.011Z,26.40
2018-09-20T16:27:41.857Z,26.20
2018-09-20T16:34:19.937Z,26.10
2018-09-20T16:40:26.668Z,25.90
2018-09-20T16:47:09.096Z,25.80
2018-09-20T16:53:13.730Z,25.60
2018-09-20T16:59:17.756Z,25.50
2018-09-20T17:05:22.743Z,25.40
2018-09-20T17:11:26.861Z,25.10
2018-09-20T17:17:31.385Z,24.90
2018-09-20T17:23:35.088Z,24.70
2018-09-20T17:29:38.808Z,24.50
2018-09-20T17:35:47.536Z,24.20
2018-09-20T17:41:52.875Z,24.00
2018-09-20T17:47:56.762Z,23.70
2018-09-20T17:54:01.207Z,23.50
2018-09-20T18:00:06.908Z,23.10
2018-09-20T18:06:11.866Z,23.00
2018-09-20T18:12:16.578Z,22.80
2018-09-20T18:18:21.222Z,22.50
2018-09-20T18:24:25.262Z,22.20
2018-09-20T18:30:29.623Z,21.90
2018-09-20T18:36:33.399Z,21.60
2018-09-20T18:42:37.236Z,21.30
2018-09-20T18:48:41.496Z,21.00
2018-09-20T18:54:51.586Z,20.80
2018-09-20T19:00:57.536Z,20.60
2018-09-20T19:07:01.351Z,20.50
2018-09-20T19:13:05.468Z,20.40
2018-09-20T19:19:16.139Z,20.50
2018-09-20T19:25:20.072Z,22.00
2018-09-20T19:31:23.881Z,21.20
2018-09-20T19:37:27.553Z,21.10
2018-09-20T19:43:32.244Z,21.10
2018-09-20T19:49:36.702Z,21.00
2018-09-20T19:55:40.774Z,21.00
2018-09-20T20:01:45.335Z,20.90
2018-09-20T20:07:54.201Z,20.80
2018-09-20T20:13:58.689Z,20.80
2018-09-20T20:20:04.887Z,20.70
2018-09-20T20:26:13.364Z,20.70
2018-09-20T20:32:19.446Z,20.70
2018-09-20T20:38:23.956Z,20.70
2018-09-20T20:44:28.060Z,20.70
2018-09-20T20:50:32.434Z,20.70
2018-09-20T20:56:36.978Z,20.70
2018-09-20T21:02:42.013Z,20.70
2018-09-20T21:08:46.883Z,20.60
2018-09-20T21:14:51.264Z,20.60
2018-09-20T21:20:55.438Z,20.60
2018-09-20T21:26:59.338Z,20.60
2018-09-20T21:33:02.650Z,20.50
2018-09-20T21:39:09.717Z,20.50
2018-09-20T21:45:14.566Z,20.50
2018-09-20T21:51:18.149Z,20.60
2018-09-20T21:57:21.861Z,20.70
2018-09-20T22:03:25.314Z,20.70
2018-09-20T22:09:29.403Z,20.80
2018-09-20T22:15:33.658Z,20.80
2018-09-20T22:21:37.168Z,20.80
2018-09-20T22:27:40.803Z,20.80
2018-09-20T22:33:44.176Z,20.80
2018-09-20T22:39:48.430Z,20.90
2018-09-20T22:45:51.633Z,20.90
2018-09-20T22:51:55.206Z,20.90
2018-09-20T22:57:59.146Z,21.00
2018-09-20T23:04:03.374Z,21.00
2018-09-20T23:10:07.778Z,21.00
2018-09-20T23:16:11.342Z,21.00
2018-09-20T23:22:15.079Z,21.00
2018-09-20T23:28:19.384Z,21.00
2018-09-20T23:34:23.147Z,21.00
2018-09-20T23:40:27.568Z,21.00
2018-09-20T23:46:31.154Z,20.90
2018-09-20T23:52:34.755Z,20.90
2018-09-20T23:58:38.566Z,20.80
